Time;durP1;ratioP1;P1;durP2;ratioP2;P2;SDS_P1;SDS_P2;PMS_P1;PMS_P2;Temp;Humidity;BMP_temperature;BMP_pressure;BME280_temperature;BME280_humidity;BME280_pressure;Samples;Min_cycle;Max_cycle;Signal;HPM_P1;HPM_P2
2023/09/15 00:01:44;;;;;;;7.20;2.40;;;13.50;99.90;;;;;;5099424;28;20409;-77
2023/09/15 00:04:11;;;;;;;6.93;2.50;;;13.40;99.90;;;;;;5099561;28;20047;-75
2023/09/15 00:06:37;;;;;;;6.07;2.55;;;13.40;99.90;;;;;;5121129;28;20122;-76
2023/09/15 00:09:06;;;;;;;6.07;2.22;;;13.40;99.90;;;;;;5115835;28;20569;-76
2023/09/15 00:11:42;;;;;;;6.25;2.72;;;13.40;99.90;;;;;;5118297;28;20054;-75
2023/09/15 00:14:09;;;;;;;8.75;2.75;;;13.40;99.90;;;;;;5118336;28;20046;-75
2023/09/15 00:16:35;;;;;;;7.05;2.50;;;13.30;99.90;;;;;;5099438;28;20463;-76
2023/09/15 00:19:03;;;;;;;7.45;2.20;;;13.30;99.90;;;;;;5117140;28;20065;-76
2023/09/15 00:21:29;;;;;;;9.65;2.20;;;13.10;99.90;;;;;;5098364;28;20052;-76
2023/09/15 00:23:54;;;;;;;6.32;2.42;;;13.30;99.90;;;;;;5141374;27;20178;-76
2023/09/15 00:26:23;;;;;;;6.20;2.38;;;13.30;99.90;;;;;;5080744;28;20096;-76
2023/09/15 00:28:49;;;;;;;7.47;2.30;;;13.20;99.90;;;;;;5080963;28;20039;-77
2023/09/15 00:31:27;;;;;;;6.07;2.13;;;13.20;99.90;;;;;;5116919;28;20054;-76
2023/09/15 00:33:52;;;;;;;4.82;2.30;;;13.20;99.90;;;;;;5101693;28;20040;-76
2023/09/15 00:36:18;;;;;;;8.07;2.50;;;13.20;99.90;;;;;;5109588;28;20478;-76
2023/09/15 00:38:43;;;;;;;6.65;2.50;;;13.20;99.90;;;;;;5122848;28;20533;-76
2023/09/15 00:41:10;;;;;;;6.70;2.35;;;13.20;99.90;;;;;;5099307;28;20063;-76
2023/09/15 00:43:38;;;;;;;7.82;2.25;;;13.10;99.90;;;;;;5104899;28;20035;-76
2023/09/15 00:46:05;;;;;;;10.38;2.97;;;13.10;99.90;;;;;;5118457;28;20048;-76
2023/09/15 00:48:32;;;;;;;6.72;3.20;;;13.10;99.90;;;;;;5118731;28;20043;-77
2023/09/15 00:50:58;;;;;;;4.93;2.08;;;13.10;99.90;;;;;;5119374;28;20052;-76
2023/09/15 00:53:24;;;;;;;7.60;2.75;;;13.10;99.90;;;;;;5071243;28;20070;-75
2023/09/15 00:55:51;;;;;;;7.07;2.80;;;13.10;99.90;;;;;;5101163;28;20118;-76
2023/09/15 00:58:18;;;;;;;6.70;3.00;;;13.00;99.90;;;;;;5102655;28;20154;-76
2023/09/15 01:00:44;;;;;;;7.07;2.42;;;13.00;99.90;;;;;;5100903;28;20044;-77
2023/09/15 01:03:13;;;;;;;5.72;2.60;;;13.00;99.90;;;;;;5101956;28;20048;-76
2023/09/15 01:05:42;;;;;;;7.47;3.03;;;13.00;99.90;;;;;;5096677;28;20086;-76
2023/09/15 01:08:07;;;;;;;8.07;2.85;;;13.00;99.90;;;;;;5088796;28;20070;-76
2023/09/15 01:10:36;;;;;;;10.35;2.97;;;12.90;99.90;;;;;;5108413;28;20118;-76
2023/09/15 01:13:04;;;;;;;8.68;2.85;;;12.90;99.90;;;;;;5110450;28;20077;-77
2023/09/15 01:16:00;;;;;;;6.80;2.42;;;12.90;99.90;;;;;;5107924;28;20050;-76
2023/09/15 01:18:39;;;;;;;7.50;2.60;;;12.90;99.90;;;;;;5093189;28;20414;-76
2023/09/15 01:21:48;;;;;;;6.82;2.50;;;12.90;99.90;;;;;;5096646;28;20052;-76
2023/09/15 01:24:41;;;;;;;7.25;2.53;;;12.90;99.90;;;;;;5098841;28;20044;-76
2023/09/15 01:27:41;;;;;;;5.10;2.17;;;12.90;99.90;;;;;;5100703;28;20090;-76
2023/09/15 01:30:11;;;;;;;8.02;2.85;;;12.90;99.90;;;;;;5088056;28;20130;-77
2023/09/15 01:32:41;;;;;;;7.78;3.00;;;12.80;99.90;;;;;;5105343;28;20055;-76
2023/09/15 01:35:08;;;;;;;8.40;3.05;;;12.80;99.90;;;;;;5086129;28;20052;-76
2023/09/15 01:37:35;;;;;;;9.32;3.65;;;12.80;99.90;;;;;;5103594;28;20048;-76
2023/09/15 01:40:00;;;;;;;5.47;2.45;;;12.80;99.90;;;;;;5108076;28;20062;-76
2023/09/15 01:42:27;;;;;;;7.93;3.08;;;12.80;99.90;;;;;;5088201;28;20052;-76
2023/09/15 01:44:54;;;;;;;6.80;2.90;;;12.70;99.90;;;;;;5103617;28;20069;-76
2023/09/15 01:47:24;;;;;;;9.20;2.90;;;12.70;99.90;;;;;;5104443;28;20704;-77
2023/09/15 01:49:52;;;;;;;7.70;3.50;;;12.70;99.90;;;;;;5104044;28;20097;-76
2023/09/15 01:52:22;;;;;;;7.40;2.90;;;12.70;99.90;;;;;;5093572;28;20387;-77
2023/09/15 01:54:54;;;;;;;6.82;3.03;;;12.70;99.90;;;;;;5101453;28;20032;-76
2023/09/15 01:57:24;;;;;;;8.55;3.28;;;12.70;99.90;;;;;;5089833;28;20048;-76
2023/09/15 01:59:51;;;;;;;5.10;2.30;;;12.60;99.90;;;;;;5107065;28;20083;-76
2023/09/15 02:02:18;;;;;;;14.90;3.65;;;12.60;99.90;;;;;;5084198;28;20043;-76
2023/09/15 02:04:46;;;;;;;6.80;2.40;;;12.60;99.90;;;;;;5083881;28;20495;-76
2023/09/15 02:07:13;;;;;;;7.68;2.75;;;12.60;99.90;;;;;;5104728;28;20051;-77
2023/09/15 02:09:40;;;;;;;4.63;2.60;;;12.60;99.90;;;;;;5076004;28;20816;-75
2023/09/15 02:12:09;;;;;;;6.43;2.88;;;12.60;99.90;;;;;;5106311;28;20047;-76
2023/09/15 02:14:35;;;;;;;5.40;2.30;;;12.60;99.90;;;;;;5070474;28;20062;-76
2023/09/15 02:17:04;;;;;;;5.03;2.60;;;12.60;99.90;;;;;;5094423;28;20409;-76
2023/09/15 02:19:30;;;;;;;7.57;2.45;;;12.50;99.90;;;;;;5102741;28;20048;-76
2023/09/15 02:21:57;;;;;;;6.35;3.28;;;12.50;99.90;;;;;;5102864;28;20051;-76
2023/09/15 02:24:23;;;;;;;11.15;3.08;;;12.50;99.90;;;;;;5092598;28;20087;-76
2023/09/15 02:26:54;;;;;;;6.70;2.53;;;12.40;99.90;;;;;;5097935;28;20059;-76
2023/09/15 02:29:25;;;;;;;6.50;2.33;;;12.50;99.90;;;;;;5107839;28;20047;-76
2023/09/15 02:31:51;;;;;;;7.53;2.60;;;12.50;99.90;;;;;;5101053;28;20050;-77
2023/09/15 02:34:20;;;;;;;5.50;2.67;;;12.50;99.90;;;;;;5112155;28;20123;-76
2023/09/15 02:36:45;;;;;;;5.55;3.00;;;12.40;99.90;;;;;;5089884;28;20040;-77
2023/09/15 02:39:11;;;;;;;6.50;2.25;;;12.40;99.90;;;;;;5100691;28;20085;-77
2023/09/15 02:41:40;;;;;;;6.68;3.30;;;12.40;99.90;;;;;;5100891;28;20512;-76
2023/09/15 02:44:10;;;;;;;7.57;2.55;;;12.40;99.90;;;;;;5108541;28;20055;-76
2023/09/15 02:46:38;;;;;;;7.00;2.28;;;12.40;99.90;;;;;;5083056;28;20048;-76
2023/09/15 02:49:08;;;;;;;6.53;2.97;;;12.40;99.90;;;;;;5105370;28;20051;-77
2023/09/15 02:51:37;;;;;;;7.63;3.25;;;12.30;99.90;;;;;;5107271;28;20047;-76
2023/09/15 02:54:04;;;;;;;5.65;2.33;;;12.40;99.90;;;;;;5095706;28;20053;-77
2023/09/15 02:56:32;;;;;;;6.25;2.88;;;12.40;99.90;;;;;;5110811;28;20097;-76
2023/09/15 02:58:58;;;;;;;6.57;2.67;;;12.30;99.90;;;;;;5082410;28;20445;-76
2023/09/15 03:01:24;;;;;;;5.15;2.72;;;12.30;99.90;;;;;;5112372;28;20047;-76
2023/09/15 03:03:49;;;;;;;5.47;2.47;;;12.30;99.90;;;;;;5112599;28;20363;-76
2023/09/15 03:06:15;;;;;;;6.97;3.03;;;12.20;99.90;;;;;;5094993;28;20040;-77
2023/09/15 03:08:41;;;;;;;5.30;2.80;;;12.30;99.90;;;;;;5111735;28;20094;-76
2023/09/15 03:11:18;;;;;;;7.18;2.60;;;12.20;99.90;;;;;;5112736;28;20119;-77
2023/09/15 03:13:47;;;;;;;4.40;2.22;;;12.20;99.90;;;;;;5113005;28;20403;-76
2023/09/15 03:16:13;;;;;;;6.38;2.53;;;12.20;99.90;;;;;;5102033;28;20402;-76
2023/09/15 03:18:39;;;;;;;5.00;2.03;;;12.10;99.90;;;;;;5114610;28;20517;-76
2023/09/15 03:21:06;;;;;;;10.07;3.13;;;12.10;99.90;;;;;;5114720;28;20043;-76
2023/09/15 03:23:32;;;;;;;8.80;2.90;;;12.10;99.90;;;;;;5081294;28;20054;-76
2023/09/15 03:26:02;;;;;;;6.82;3.53;;;12.10;99.90;;;;;;5113023;28;20055;-76
2023/09/15 03:28:30;;;;;;;10.85;3.40;;;12.00;99.90;;;;;;5094139;28;20036;-76
2023/09/15 03:30:56;;;;;;;5.35;2.10;;;12.00;99.90;;;;;;5111104;28;20063;-76
2023/09/15 03:33:23;;;;;;;7.07;2.50;;;12.00;99.90;;;;;;5111203;28;20036;-76
2023/09/15 03:35:51;;;;;;;8.43;2.65;;;12.00;99.90;;;;;;5110548;28;20039;-76
2023/09/15 03:38:17;;;;;;;6.50;2.72;;;12.00;99.90;;;;;;5109218;28;20085;-77
2023/09/15 03:40:43;;;;;;;4.47;2.70;;;12.00;99.90;;;;;;5109759;28;20082;-76
2023/09/15 03:43:12;;;;;;;7.72;3.50;;;11.90;99.90;;;;;;5100438;28;20059;-77
2023/09/15 03:45:38;;;;;;;9.00;3.35;;;11.90;99.90;;;;;;5109393;28;20039;-76
2023/09/15 03:48:04;;;;;;;7.13;2.97;;;11.90;99.90;;;;;;5080176;28;20038;-76
2023/09/15 03:50:33;;;;;;;7.53;3.42;;;11.90;99.90;;;;;;5103344;28;20056;-76
2023/09/15 03:53:02;;;;;;;8.35;3.63;;;11.80;99.90;;;;;;5092497;28;20414;-77
2023/09/15 03:55:29;;;;;;;6.45;3.50;;;11.80;99.90;;;;;;5112002;28;20417;-76
2023/09/15 03:58:00;;;;;;;8.45;3.35;;;11.80;99.90;;;;;;5110500;28;20081;-77
2023/09/15 04:00:28;;;;;;;6.10;3.28;;;11.80;99.90;;;;;;5112537;28;20044;-76
2023/09/15 04:02:57;;;;;;;7.20;3.75;;;11.80;99.90;;;;;;5110454;28;20052;-76
2023/09/15 04:05:23;;;;;;;10.07;4.05;;;11.70;99.90;;;;;;5093748;28;20122;-77
2023/09/15 04:07:49;;;;;;;8.50;3.40;;;11.70;99.90;;;;;;5108882;28;20148;-76
2023/09/15 04:10:18;;;;;;;10.05;4.30;;;11.70;99.90;;;;;;5095595;28;20126;-76
2023/09/15 04:12:45;;;;;;;8.18;3.03;;;11.70;99.90;;;;;;5096419;28;20056;-76
2023/09/15 04:15:11;;;;;;;7.43;3.67;;;11.70;99.90;;;;;;5069038;28;20077;-76
2023/09/15 04:17:38;;;;;;;5.82;3.05;;;11.60;99.90;;;;;;5101188;28;20039;-77
2023/09/15 04:20:08;;;;;;;8.25;3.78;;;11.60;99.90;;;;;;5094473;28;20181;-76
2023/09/15 04:22:35;;;;;;;6.13;3.70;;;11.60;99.90;;;;;;5097107;28;20048;-77
2023/09/15 04:25:02;;;;;;;8.65;3.45;;;11.60;99.90;;;;;;5105878;28;20058;-76
2023/09/15 04:27:28;;;;;;;7.28;3.30;;;11.60;99.90;;;;;;5110599;28;20503;-76
2023/09/15 04:29:59;;;;;;;9.73;4.03;;;11.60;99.90;;;;;;5114885;28;20170;-76
2023/09/15 04:32:26;;;;;;;7.32;3.35;;;11.60;99.90;;;;;;5085718;28;20040;-76
2023/09/15 04:34:52;;;;;;;8.02;4.45;;;11.60;99.90;;;;;;5092854;28;20058;-76
2023/09/15 04:37:25;;;;;;;9.48;4.18;;;11.50;99.90;;;;;;5099092;28;20061;-76
2023/09/15 04:39:53;;;;;;;5.78;3.70;;;11.50;99.90;;;;;;5096588;28;20074;-77
2023/09/15 04:42:21;;;;;;;11.82;4.65;;;11.60;99.90;;;;;;5095088;28;20062;-76
2023/09/15 04:44:47;;;;;;;8.43;3.53;;;11.60;99.90;;;;;;5096691;28;20065;-77
2023/09/15 04:47:17;;;;;;;7.32;3.65;;;11.50;99.90;;;;;;5093246;28;20035;-77
2023/09/15 04:49:44;;;;;;;6.93;3.72;;;11.50;99.90;;;;;;5093690;28;21985;-76
2023/09/15 04:52:14;;;;;;;8.15;4.05;;;11.50;99.90;;;;;;5113567;28;20058;-76
2023/09/15 04:54:44;;;;;;;8.68;3.85;;;11.50;99.90;;;;;;5114302;28;20043;-76
2023/09/15 04:57:09;;;;;;;8.93;3.83;;;11.40;99.90;;;;;;5081985;28;20046;-76
2023/09/15 04:59:35;;;;;;;8.05;4.10;;;11.40;99.90;;;;;;5114777;28;20130;-75
2023/09/15 05:02:01;;;;;;;9.63;4.10;;;11.40;99.90;;;;;;5106571;28;20047;-76
2023/09/15 05:04:30;;;;;;;8.05;4.20;;;11.40;99.90;;;;;;5095651;28;20067;-76
2023/09/15 05:06:55;;;;;;;10.13;4.22;;;11.40;99.90;;;;;;5083601;28;20479;-77
2023/09/15 05:09:21;;;;;;;5.75;3.22;;;11.40;99.90;;;;;;5093784;28;20048;-77
2023/09/15 05:11:48;;;;;;;10.13;4.78;;;11.40;99.90;;;;;;5110958;28;20039;-76
2023/09/15 05:14:14;;;;;;;8.65;4.85;;;11.40;99.90;;;;;;5071650;28;20387;-76
2023/09/15 05:16:39;;;;;;;8.60;4.30;;;11.30;99.90;;;;;;5107998;28;20059;-76
2023/09/15 05:19:05;;;;;;;7.88;4.80;;;11.40;99.90;;;;;;5101899;28;20467;-75
2023/09/15 05:21:31;;;;;;;10.23;4.28;;;11.30;99.90;;;;;;5105795;28;20532;-75
2023/09/15 05:23:56;;;;;;;6.57;3.78;;;11.30;99.90;;;;;;5111284;28;20456;-77
2023/09/15 05:26:22;;;;;;;8.15;5.05;;;11.30;99.90;;;;;;5107245;28;20127;-79
2023/09/15 05:28:48;;;;;;;9.10;4.10;;;11.30;99.90;;;;;;5107295;28;20085;-77
2023/09/15 05:31:14;;;;;;;8.18;4.18;;;11.30;99.90;;;;;;5101231;28;20075;-77
2023/09/15 05:33:39;;;;;;;8.98;4.68;;;11.30;99.90;;;;;;5104502;28;20052;-78
2023/09/15 05:36:05;;;;;;;14.50;5.25;;;11.30;99.90;;;;;;5104010;28;20078;-78
2023/09/15 05:38:30;;;;;;;8.07;5.18;;;11.30;99.90;;;;;;5108953;28;20141;-77
2023/09/15 05:40:56;;;;;;;10.02;4.55;;;11.30;99.90;;;;;;5100622;28;20059;-78
2023/09/15 05:43:22;;;;;;;7.50;4.25;;;11.30;99.90;;;;;;5100352;28;20055;-79
2023/09/15 05:45:48;;;;;;;9.73;5.00;;;11.30;99.90;;;;;;5103327;28;20050;-77
2023/09/15 05:48:22;;;;;;;7.82;4.72;;;11.30;99.90;;;;;;5104412;28;20075;-78
2023/09/15 05:50:51;;;;;;;8.88;5.28;;;11.30;99.90;;;;;;5087396;28;20058;-77
2023/09/15 05:53:17;;;;;;;7.32;5.03;;;11.30;99.90;;;;;;5099967;28;20040;-79
2023/09/15 05:55:43;;;;;;;7.68;4.90;;;11.20;99.90;;;;;;5102375;28;20380;-78
2023/09/15 05:58:09;;;;;;;11.93;7.75;;;11.20;99.90;;;;;;5108002;28;20115;-77
2023/09/15 06:00:35;;;;;;;11.43;7.43;;;11.30;99.90;;;;;;5100549;28;20047;-77
2023/09/15 06:03:01;;;;;;;11.82;8.60;;;11.30;99.90;;;;;;5103442;28;20136;-76
2023/09/15 06:05:27;;;;;;;12.68;8.20;;;11.20;99.90;;;;;;5085056;28;20402;-77
2023/09/15 06:07:53;;;;;;;15.07;10.02;;;11.30;99.90;;;;;;5102655;28;20035;-76
2023/09/15 06:10:19;;;;;;;14.95;9.02;;;11.30;99.90;;;;;;5100675;28;20067;-78
2023/09/15 06:12:52;;;;;;;13.60;9.13;;;11.20;99.90;;;;;;5095625;28;20134;-77
2023/09/15 06:15:21;;;;;;;11.20;7.70;;;11.20;99.90;;;;;;5113311;28;20493;-80
2023/09/15 06:17:47;;;;;;;10.38;7.65;;;11.30;99.90;;;;;;5115015;27;20410;-82
2023/09/15 06:20:13;;;;;;;14.25;7.97;;;11.30;99.90;;;;;;5114643;27;20051;-80
2023/09/15 06:22:40;;;;;;;13.25;8.15;;;11.30;99.90;;;;;;5113804;28;20044;-82
2023/09/15 06:25:06;;;;;;;11.23;6.40;;;11.30;99.90;;;;;;5094710;28;20398;-82
2023/09/15 06:27:33;;;;;;;10.32;6.80;;;11.40;99.90;;;;;;5109339;28;20052;-82
2023/09/15 06:30:01;;;;;;;14.57;7.50;;;11.40;99.90;;;;;;5112524;28;20440;-81
2023/09/15 06:32:30;;;;;;;11.98;5.72;;;11.40;99.90;;;;;;5106142;28;20428;-82
2023/09/15 06:34:56;;;;;;;13.50;7.43;;;11.40;99.90;;;;;;5084021;27;20044;-83
2023/09/15 06:37:21;;;;;;;13.15;7.03;;;11.50;99.90;;;;;;5111217;27;20116;-83
2023/09/15 06:39:47;;;;;;;11.68;7.03;;;11.50;99.90;;;;;;5105184;28;20039;-82
2023/09/15 06:42:12;;;;;;;11.27;7.88;;;11.50;99.90;;;;;;5106233;28;20063;-81
2023/09/15 06:44:38;;;;;;;8.77;6.40;;;11.50;99.90;;;;;;5101185;28;20048;-82
2023/09/15 06:47:04;;;;;;;7.78;4.68;;;11.50;99.90;;;;;;5110048;28;20043;-83
2023/09/15 06:49:31;;;;;;;9.52;6.65;;;11.50;99.90;;;;;;5108156;28;20403;-82
2023/09/15 06:51:57;;;;;;;7.70;5.13;;;11.60;99.90;;;;;;5106541;28;20059;-83
2023/09/15 06:54:23;;;;;;;9.88;6.55;;;11.60;99.90;;;;;;5112080;28;20482;-83
2023/09/15 06:56:50;;;;;;;8.13;5.45;;;11.60;99.90;;;;;;5097421;28;20047;-82
2023/09/15 06:59:16;;;;;;;14.30;6.82;;;11.60;99.90;;;;;;5111191;28;20544;-84
2023/09/15 07:01:41;;;;;;;10.98;5.78;;;11.70;99.90;;;;;;5100844;28;20071;-83
2023/09/15 07:04:07;;;;;;;6.43;3.60;;;11.70;99.90;;;;;;5109038;28;20043;-84
2023/09/15 07:06:32;;;;;;;8.40;4.57;;;11.70;99.90;;;;;;5112134;28;20130;-83
2023/09/15 07:08:59;;;;;;;7.43;4.60;;;11.80;99.90;;;;;;5092901;28;20432;-83
2023/09/15 07:11:24;;;;;;;6.28;3.50;;;11.80;99.90;;;;;;5104123;28;20046;-84
2023/09/15 07:13:50;;;;;;;8.32;5.03;;;11.80;99.90;;;;;;5108851;28;20036;-84
2023/09/15 07:16:16;;;;;;;8.38;4.85;;;11.80;99.90;;;;;;5109970;28;20044;-84
2023/09/15 07:18:41;;;;;;;8.95;5.60;;;11.80;99.90;;;;;;5110335;28;20040;-84
2023/09/15 07:21:07;;;;;;;8.70;4.60;;;11.90;99.90;;;;;;5101908;28;20042;-84
2023/09/15 07:23:32;;;;;;;8.23;4.68;;;11.90;99.90;;;;;;5110894;28;20032;-83
2023/09/15 07:25:59;;;;;;;11.40;5.53;;;11.90;99.90;;;;;;5113194;28;20050;-83
2023/09/15 07:28:25;;;;;;;10.70;5.70;;;11.90;99.90;;;;;;5110800;28;20551;-84
2023/09/15 07:30:50;;;;;;;7.25;4.82;;;12.00;99.90;;;;;;5108856;28;20048;-83
2023/09/15 07:33:16;;;;;;;9.40;5.53;;;12.00;99.90;;;;;;5107605;28;20126;-84
2023/09/15 07:35:41;;;;;;;11.00;5.63;;;12.10;99.90;;;;;;5111959;28;20039;-84
2023/09/15 07:38:07;;;;;;;8.55;4.03;;;12.10;99.90;;;;;;5113538;28;20079;-84
2023/09/15 07:40:33;;;;;;;10.15;5.57;;;12.10;99.90;;;;;;5110003;28;20052;-83
2023/09/15 07:42:59;;;;;;;11.50;5.53;;;12.20;99.90;;;;;;5112997;28;20093;-82
2023/09/15 07:45:26;;;;;;;9.00;5.80;;;12.20;99.90;;;;;;5113932;28;20048;-84
2023/09/15 07:47:53;;;;;;;11.75;6.10;;;12.20;99.90;;;;;;5116953;28;20047;-84
2023/09/15 07:50:18;;;;;;;9.10;4.80;;;12.30;99.90;;;;;;5114877;28;20065;-83
2023/09/15 07:52:45;;;;;;;11.68;5.50;;;12.30;99.90;;;;;;5123134;28;20048;-83
2023/09/15 07:55:11;;;;;;;9.13;5.90;;;12.30;99.90;;;;;;5089882;28;20086;-83
2023/09/15 07:57:38;;;;;;;10.52;5.10;;;12.40;99.90;;;;;;5130245;28;20043;-83
2023/09/15 08:00:06;;;;;;;10.80;5.13;;;12.40;99.90;;;;;;5126285;28;20039;-83
2023/09/15 08:02:32;;;;;;;13.15;5.35;;;12.50;99.90;;;;;;5136538;28;20065;-81
2023/09/15 08:04:58;;;;;;;10.80;5.15;;;12.60;99.90;;;;;;5137400;28;20107;-82
2023/09/15 08:07:23;;;;;;;10.63;5.40;;;12.60;99.90;;;;;;5129548;28;20047;-85
2023/09/15 08:09:49;;;;;;;8.68;4.82;;;12.70;99.90;;;;;;5124605;28;20042;-83
2023/09/15 08:12:19;;;;;;;11.18;5.60;;;12.80;99.90;;;;;;5115815;28;20054;-80
2023/09/15 08:14:45;;;;;;;24.73;6.53;;;12.80;99.90;;;;;;5128814;28;20044;-84
2023/09/15 08:17:12;;;;;;;11.50;6.53;;;12.90;99.90;;;;;;5126867;28;20443;-83
2023/09/15 08:19:38;;;;;;;11.50;5.65;;;12.90;99.90;;;;;;5128392;28;20050;-83
2023/09/15 08:22:05;;;;;;;13.70;6.20;;;13.00;99.90;;;;;;5103364;28;20044;-84
2023/09/15 08:24:31;;;;;;;9.48;5.05;;;13.10;99.90;;;;;;5138951;27;20525;-84
2023/09/15 08:26:57;;;;;;;12.88;6.22;;;13.20;99.90;;;;;;5119100;27;20056;-84
2023/09/15 08:29:22;;;;;;;8.95;3.95;;;13.20;99.90;;;;;;5119405;28;20083;-84
2023/09/15 08:31:48;;;;;;;13.65;5.40;;;13.30;99.90;;;;;;5115909;28;20103;-84
2023/09/15 08:34:14;;;;;;;12.15;5.32;;;13.30;99.90;;;;;;5118761;28;20073;-84
2023/09/15 08:36:40;;;;;;;12.35;6.38;;;13.40;99.90;;;;;;5118844;28;20047;-84
2023/09/15 08:39:06;;;;;;;10.73;6.22;;;13.50;99.90;;;;;;5116359;28;20043;-84
2023/09/15 08:41:58;;;;;;;10.70;5.68;;;13.50;99.90;;;;;;5099099;28;20143;-83
2023/09/15 08:44:25;;;;;;;10.10;5.88;;;13.60;99.90;;;;;;5121901;28;20048;-84
2023/09/15 08:46:52;;;;;;;10.68;5.57;;;13.70;99.90;;;;;;5120062;28;20044;-85
2023/09/15 08:49:18;;;;;;;9.23;5.18;;;13.80;99.90;;;;;;5125763;28;20055;-84
2023/09/15 08:51:45;;;;;;;10.80;5.53;;;13.80;99.90;;;;;;5118224;27;20052;-84
2023/09/15 08:54:13;;;;;;;9.80;5.22;;;14.00;99.90;;;;;;5128427;28;20043;-85
2023/09/15 08:56:39;;;;;;;10.23;5.15;;;14.10;99.90;;;;;;5117299;28;20073;-84
2023/09/15 08:59:06;;;;;;;10.43;4.40;;;14.20;99.90;;;;;;5128625;28;20048;-84
2023/09/15 09:01:32;;;;;;;9.70;4.47;;;14.40;99.90;;;;;;5123062;28;20107;-83
2023/09/15 09:03:58;;;;;;;7.75;4.72;;;14.50;99.90;;;;;;5127752;28;20048;-83
2023/09/15 09:06:26;;;;;;;9.80;4.70;;;14.70;99.90;;;;;;5110850;28;20118;-84
2023/09/15 09:08:52;;;;;;;7.82;3.67;;;14.80;99.90;;;;;;5114856;28;20047;-84
2023/09/15 09:11:17;;;;;;;8.68;4.45;;;15.00;99.90;;;;;;5117859;28;20514;-84
2023/09/15 09:13:53;;;;;;;11.48;3.97;;;15.20;99.90;;;;;;5118995;28;20040;-85
2023/09/15 09:16:21;;;;;;;10.63;4.13;;;15.30;99.90;;;;;;5121966;28;20043;-82
2023/09/15 09:18:58;;;;;;;9.10;3.85;;;15.50;99.90;;;;;;5117339;28;20079;-84
2023/09/15 09:21:26;;;;;;;8.43;3.33;;;15.60;99.90;;;;;;5124316;28;20181;-84
2023/09/15 09:23:55;;;;;;;9.90;3.35;;;15.80;99.90;;;;;;5119531;28;20050;-84
2023/09/15 09:26:21;;;;;;;8.63;3.17;;;16.00;99.90;;;;;;5124512;28;20047;-84
2023/09/15 09:28:47;;;;;;;6.93;3.58;;;16.20;99.90;;;;;;5123892;28;20063;-85
2023/09/15 09:31:14;;;;;;;7.88;2.70;;;16.30;99.90;;;;;;5114204;28;20048;-84
2023/09/15 09:33:41;;;;;;;8.40;3.28;;;16.40;99.90;;;;;;5120715;28;20035;-83
2023/09/15 09:36:15;;;;;;;10.23;2.78;;;16.60;99.90;;;;;;5124030;28;20039;-84
2023/09/15 09:38:42;;;;;;;7.18;2.78;;;16.80;99.90;;;;;;5112055;28;20468;-83
2023/09/15 09:41:12;;;;;;;7.88;3.08;;;16.90;99.90;;;;;;5124419;28;20524;-84
2023/09/15 09:43:46;;;;;;;8.25;3.38;;;17.10;99.90;;;;;;5118848;28;20070;-84
2023/09/15 09:46:12;;;;;;;;;;;17.20;99.90;;;;;;5110600;28;20044;-84
2023/09/15 09:48:39;;;;;;;6.82;2.90;;;17.40;99.90;;;;;;5111644;28;19919;-83
2023/09/15 09:51:05;;;;;;;9.13;3.40;;;17.50;99.90;;;;;;5113583;28;20474;-84
2023/09/15 09:53:33;;;;;;;9.43;3.85;;;17.70;99.90;;;;;;5114553;28;20071;-83
2023/09/15 09:56:05;;;;;;;9.60;3.90;;;17.80;99.90;;;;;;5113918;28;20122;-83
2023/09/15 09:58:32;;;;;;;9.77;3.45;;;17.90;99.90;;;;;;5108376;28;20600;-83
2023/09/15 10:00:59;;;;;;;8.68;4.00;;;18.00;99.90;;;;;;5112005;28;20052;-85
2023/09/15 10:03:24;;;;;;;9.02;4.13;;;18.20;99.90;;;;;;5097077;28;20102;-84
2023/09/15 10:05:52;;;;;;;11.27;4.55;;;18.30;99.90;;;;;;5114371;28;20579;-84
2023/09/15 10:08:18;;;;;;;7.72;3.45;;;18.40;99.90;;;;;;5111675;28;20088;-84
2023/09/15 10:10:45;;;;;;;8.70;4.20;;;18.60;99.90;;;;;;5101728;28;20070;-83
2023/09/15 10:13:13;;;;;;;6.78;4.18;;;18.70;99.90;;;;;;5104813;28;20411;-82
2023/09/15 10:15:43;;;;;;;11.32;4.38;;;18.70;99.90;;;;;;5107566;28;20043;-81
2023/09/15 10:18:12;;;;;;;7.43;3.03;;;18.80;99.90;;;;;;5108408;28;20138;-81
2023/09/15 10:20:42;;;;;;;6.65;3.25;;;19.00;99.90;;;;;;5104745;28;20035;-81
2023/09/15 10:23:10;;;;;;;12.00;3.72;;;19.10;99.90;;;;;;5101057;28;20491;-80
2023/09/15 10:25:42;;;;;;;7.72;2.92;;;19.20;99.90;;;;;;5087730;28;20051;-79
2023/09/15 10:28:13;;;;;;;7.90;2.83;;;19.30;99.90;;;;;;5090728;28;20364;-79
2023/09/15 10:30:39;;;;;;;10.18;2.90;;;19.50;99.90;;;;;;5111196;28;20069;-80
2023/09/15 10:33:07;;;;;;;9.80;3.30;;;19.60;99.90;;;;;;5110332;28;20047;-79
2023/09/15 10:35:33;;;;;;;6.80;2.45;;;19.60;99.90;;;;;;5102113;28;20490;-80
2023/09/15 10:38:04;;;;;;;7.82;2.90;;;19.70;99.90;;;;;;5100885;28;20043;-80
2023/09/15 10:40:46;;;;;;;6.55;3.03;;;19.80;99.90;;;;;;5099219;28;20067;-80
2023/09/15 10:43:13;;;;;;;6.10;2.90;;;19.90;99.90;;;;;;5105012;28;20056;-80
2023/09/15 10:45:38;;;;;;;7.70;2.67;;;20.00;99.90;;;;;;5108063;28;20109;-80
2023/09/15 10:48:04;;;;;;;9.55;2.70;;;20.00;99.90;;;;;;5109826;28;20032;-80
2023/09/15 10:50:36;;;;;;;8.10;2.53;;;20.00;99.90;;;;;;5105395;28;20130;-80
2023/09/15 10:53:08;;;;;;;7.47;2.40;;;20.10;99.90;;;;;;5109210;28;20047;-80
2023/09/15 10:55:35;;;;;;;5.20;2.35;;;20.20;99.90;;;;;;5104116;28;20499;-84
2023/09/15 10:58:02;;;;;;;6.15;2.13;;;20.40;99.90;;;;;;5103157;28;20116;-77
2023/09/15 11:00:29;;;;;;;6.18;2.45;;;20.50;99.90;;;;;;5109638;28;20054;-78
2023/09/15 11:02:55;;;;;;;7.63;2.20;;;20.60;99.90;;;;;;5091408;28;20068;-77
2023/09/15 11:05:21;;;;;;;10.32;2.40;;;20.70;99.90;;;;;;5127069;27;20055;-77
2023/09/15 11:07:48;;;;;;;10.73;2.78;;;20.80;99.90;;;;;;5099216;28;20047;-77
2023/09/15 11:10:15;;;;;;;9.38;2.83;;;20.90;99.90;;;;;;5091554;28;20044;-76
2023/09/15 11:12:42;;;;;;;7.10;2.67;;;21.00;99.90;;;;;;5110136;28;20039;-84
2023/09/15 11:15:09;;;;;;;7.65;2.25;;;21.10;99.90;;;;;;5107355;28;20070;-80
2023/09/15 11:17:35;;;;;;;8.10;2.58;;;21.20;99.90;;;;;;5105663;28;20044;-80
2023/09/15 11:20:05;;;;;;;6.28;2.33;;;21.30;99.90;;;;;;5090132;28;20036;-80
2023/09/15 11:22:32;;;;;;;6.72;2.40;;;21.40;99.90;;;;;;5111174;28;20040;-77
2023/09/15 11:25:00;;;;;;;6.30;2.28;;;21.50;99.90;;;;;;5111838;28;20039;-79
2023/09/15 11:27:26;;;;;;;11.40;2.90;;;21.60;99.90;;;;;;5106732;28;20036;-79
2023/09/15 11:29:52;;;;;;;5.15;2.05;;;21.70;99.90;;;;;;5102741;28;20085;-79
2023/09/15 11:32:19;;;;;;;6.45;2.05;;;21.70;99.90;;;;;;5111732;28;20088;-78
2023/09/15 11:34:44;;;;;;;6.55;2.08;;;21.80;99.90;;;;;;5108067;28;20074;-80
2023/09/15 11:37:10;;;;;;;7.72;2.00;;;21.90;99.90;;;;;;5108625;28;20082;-80
2023/09/15 11:39:36;;;;;;;5.13;1.77;;;21.90;99.90;;;;;;5109632;28;20130;-80
2023/09/15 11:42:10;;;;;;;8.57;2.20;;;22.00;99.90;;;;;;5108677;28;20112;-79
2023/09/15 11:44:36;;;;;;;6.07;2.00;;;22.20;99.90;;;;;;5111693;28;20043;-79
2023/09/15 11:47:04;;;;;;;5.78;1.88;;;22.20;99.90;;;;;;5107925;28;20046;-79
2023/09/15 11:49:30;;;;;;;5.28;2.15;;;22.40;99.90;;;;;;5101887;28;20432;-80
2023/09/15 11:51:57;;;;;;;6.50;2.00;;;22.40;99.90;;;;;;5111103;28;20105;-80
2023/09/15 11:54:24;;;;;;;4.40;1.85;;;22.60;99.90;;;;;;5110369;28;20486;-79
2023/09/15 11:56:50;;;;;;;6.68;2.10;;;22.70;99.90;;;;;;5107717;28;20101;-78
2023/09/15 11:59:16;;;;;;;4.25;1.83;;;22.80;99.90;;;;;;5105532;28;20397;-78
2023/09/15 12:01:41;;;;;;;7.60;2.58;;;22.90;99.90;;;;;;5098094;28;20096;-79
2023/09/15 12:04:09;;;;;;;5.47;2.00;;;22.90;99.90;;;;;;5101335;28;20063;-79
2023/09/15 12:06:35;;;;;;;6.35;2.08;;;23.00;99.90;;;;;;5096774;28;20083;-82
2023/09/15 12:09:00;;;;;;;5.13;2.55;;;23.00;99.90;;;;;;5101650;28;20455;-81
2023/09/15 12:11:26;;;;;;;6.90;1.70;;;23.00;99.90;;;;;;5107555;28;20035;-80
2023/09/15 12:13:52;;;;;;;7.28;2.30;;;22.90;99.90;;;;;;5104527;28;20491;-81
2023/09/15 12:16:20;;;;;;;6.90;1.67;;;22.60;99.90;;;;;;5106805;28;20429;-81
2023/09/15 12:18:47;;;;;;;9.23;2.30;;;22.50;99.90;;;;;;5106911;28;20507;-80
2023/09/15 12:21:24;;;;;;;5.43;2.13;;;22.40;99.90;;;;;;5090142;28;20093;-80
2023/09/15 12:23:51;;;;;;;5.35;1.60;;;22.30;99.90;;;;;;5109521;28;20054;-80
2023/09/15 12:26:17;;;;;;;5.72;2.13;;;22.30;99.90;;;;;;5109397;28;20048;-80
2023/09/15 12:28:43;;;;;;;7.00;2.08;;;22.40;99.90;;;;;;5109180;28;20043;-81
2023/09/15 12:31:22;;;;;;;4.60;2.00;;;22.60;99.90;;;;;;5103673;28;20077;-80
2023/09/15 12:33:52;;;;;;;5.93;1.90;;;22.80;99.90;;;;;;5109118;28;20112;-81
2023/09/15 12:36:19;;;;;;;7.15;2.10;;;22.90;99.90;;;;;;5108668;28;20043;-80
2023/09/15 12:38:45;;;;;;;5.32;1.80;;;22.90;99.90;;;;;;5091010;28;20073;-81
2023/09/15 12:41:11;;;;;;;6.60;1.77;;;23.10;99.90;;;;;;5110062;28;20144;-81
2023/09/15 12:43:37;;;;;;;5.15;2.30;;;23.10;99.90;;;;;;5099402;28;20482;-81
2023/09/15 12:46:05;;;;;;;8.98;1.90;;;23.30;99.90;;;;;;5093982;28;20054;-81
2023/09/15 12:48:31;;;;;;;6.70;1.80;;;23.30;99.90;;;;;;5111547;28;20039;-80